sensor_id;sensor_type;location;lat;lon;timestamp;P1;durP1;ratioP1;P2;durP2;ratioP2
40533;SDS011;26233;51.894;10.192;2022-12-07T00:00:51;10.53;;;9.53;;
40533;SDS011;26233;51.894;10.192;2022-12-07T00:03:19;10.47;;;9.40;;
40533;SDS011;26233;51.894;10.192;2022-12-07T00:05:47;10.60;;;9.60;;
40533;SDS011;26233;51.894;10.192;2022-12-07T00:08:14;12.03;;;9.90;;
40533;SDS011;26233;51.894;10.192;2022-12-07T00:10:41;10.63;;;9.37;;
40533;SDS011;26233;51.894;10.192;2022-12-07T00:13:08;12.07;;;9.53;;
40533;SDS011;26233;51.894;10.192;2022-12-07T00:15:35;11.00;;;9.90;;
40533;SDS011;26233;51.894;10.192;2022-12-07T00:18:02;10.53;;;9.50;;
40533;SDS011;26233;51.894;10.192;2022-12-07T00:20:31;10.57;;;9.47;;
40533;SDS011;26233;51.894;10.192;2022-12-07T00:22:58;10.97;;;9.60;;
40533;SDS011;26233;51.894;10.192;2022-12-07T00:25:25;10.93;;;9.83;;
40533;SDS011;26233;51.894;10.192;2022-12-07T00:27:52;10.23;;;9.23;;
40533;SDS011;26233;51.894;10.192;2022-12-07T00:30:21;10.03;;;9.13;;
40533;SDS011;26233;51.894;10.192;2022-12-07T00:32:49;11.13;;;10.03;;
40533;SDS011;26233;51.894;10.192;2022-12-07T00:35:16;10.00;;;9.00;;
40533;SDS011;26233;51.894;10.192;2022-12-07T00:37:44;10.43;;;9.37;;
40533;SDS011;26233;51.894;10.192;2022-12-07T00:40:11;9.90;;;8.73;;
40533;SDS011;26233;51.894;10.192;2022-12-07T00:42:39;9.50;;;8.60;;
40533;SDS011;26233;51.894;10.192;2022-12-07T00:45:06;10.53;;;9.60;;
40533;SDS011;26233;51.894;10.192;2022-12-07T00:47:34;10.00;;;9.00;;
40533;SDS011;26233;51.894;10.192;2022-12-07T00:50:02;9.30;;;8.40;;
40533;SDS011;26233;51.894;10.192;2022-12-07T00:52:30;10.10;;;9.10;;
40533;SDS011;26233;51.894;10.192;2022-12-07T00:54:58;9.83;;;8.83;;
40533;SDS011;26233;51.894;10.192;2022-12-07T00:57:25;9.40;;;8.50;;
40533;SDS011;26233;51.894;10.192;2022-12-07T00:59:52;9.80;;;8.80;;
40533;SDS011;26233;51.894;10.192;2022-12-07T01:02:20;9.83;;;8.83;;
40533;SDS011;26233;51.894;10.192;2022-12-07T01:04:47;8.70;;;7.80;;
40533;SDS011;26233;51.894;10.192;2022-12-07T01:07:16;9.20;;;8.30;;
40533;SDS011;26233;51.894;10.192;2022-12-07T01:09:46;9.47;;;8.57;;
40533;SDS011;26233;51.894;10.192;2022-12-07T01:12:14;9.90;;;8.90;;
40533;SDS011;26233;51.894;10.192;2022-12-07T01:14:41;9.07;;;8.17;;
40533;SDS011;26233;51.894;10.192;2022-12-07T01:17:09;8.50;;;7.70;;
40533;SDS011;26233;51.894;10.192;2022-12-07T01:19:36;8.93;;;8.03;;
40533;SDS011;26233;51.894;10.192;2022-12-07T01:22:03;8.40;;;7.60;;
40533;SDS011;26233;51.894;10.192;2022-12-07T01:24:30;8.70;;;7.80;;
40533;SDS011;26233;51.894;10.192;2022-12-07T01:26:57;8.93;;;8.03;;
40533;SDS011;26233;51.894;10.192;2022-12-07T01:29:25;9.07;;;8.17;;
40533;SDS011;26233;51.894;10.192;2022-12-07T01:31:52;9.10;;;8.20;;
40533;SDS011;26233;51.894;10.192;2022-12-07T01:34:19;9.57;;;8.67;;
40533;SDS011;26233;51.894;10.192;2022-12-07T01:36:46;9.20;;;8.27;;
40533;SDS011;26233;51.894;10.192;2022-12-07T01:39:13;9.40;;;8.50;;
40533;SDS011;26233;51.894;10.192;2022-12-07T01:41:40;8.73;;;7.93;;
40533;SDS011;26233;51.894;10.192;2022-12-07T01:44:10;8.97;;;8.10;;
40533;SDS011;26233;51.894;10.192;2022-12-07T01:46:45;9.03;;;8.13;;
40533;SDS011;26233;51.894;10.192;2022-12-07T01:49:24;10.17;;;8.70;;
40533;SDS011;26233;51.894;10.192;2022-12-07T01:51:58;9.87;;;8.83;;
40533;SDS011;26233;51.894;10.192;2022-12-07T01:54:34;9.27;;;8.30;;
40533;SDS011;26233;51.894;10.192;2022-12-07T01:57:02;8.90;;;8.07;;
40533;SDS011;26233;51.894;10.192;2022-12-07T01:59:31;9.03;;;8.13;;
40533;SDS011;26233;51.894;10.192;2022-12-07T02:02:00;8.40;;;7.60;;
40533;SDS011;26233;51.894;10.192;2022-12-07T02:04:30;8.30;;;7.60;;
40533;SDS011;26233;51.894;10.192;2022-12-07T02:06:58;8.07;;;7.33;;
40533;SDS011;26233;51.894;10.192;2022-12-07T02:09:26;7.03;;;6.43;;
40533;SDS011;26233;51.894;10.192;2022-12-07T02:11:53;8.17;;;7.37;;
40533;SDS011;26233;51.894;10.192;2022-12-07T02:14:21;7.77;;;7.03;;
40533;SDS011;26233;51.894;10.192;2022-12-07T02:16:51;8.13;;;7.33;;
40533;SDS011;26233;51.894;10.192;2022-12-07T02:22:51;7.47;;;6.77;;
40533;SDS011;26233;51.894;10.192;2022-12-07T02:29:24;7.50;;;6.80;;
40533;SDS011;26233;51.894;10.192;2022-12-07T02:31:56;7.23;;;6.53;;
40533;SDS011;26233;51.894;10.192;2022-12-07T02:34:34;7.53;;;6.83;;
40533;SDS011;26233;51.894;10.192;2022-12-07T02:37:10;7.43;;;6.73;;
40533;SDS011;26233;51.894;10.192;2022-12-07T02:39:49;7.20;;;6.50;;
40533;SDS011;26233;51.894;10.192;2022-12-07T02:42:23;7.53;;;6.83;;
40533;SDS011;26233;51.894;10.192;2022-12-07T02:45:02;7.27;;;6.60;;
40533;SDS011;26233;51.894;10.192;2022-12-07T02:47:32;7.40;;;6.70;;
40533;SDS011;26233;51.894;10.192;2022-12-07T02:50:02;7.23;;;6.60;;
40533;SDS011;26233;51.894;10.192;2022-12-07T02:52:31;8.30;;;7.50;;
40533;SDS011;26233;51.894;10.192;2022-12-07T02:54:58;7.40;;;6.70;;
40533;SDS011;26233;51.894;10.192;2022-12-07T02:57:35;7.27;;;6.57;;
40533;SDS011;26233;51.894;10.192;2022-12-07T03:00:18;7.70;;;6.63;;
40533;SDS011;26233;51.894;10.192;2022-12-07T03:02:48;7.33;;;6.63;;
40533;SDS011;26233;51.894;10.192;2022-12-07T03:05:30;7.23;;;6.63;;
40533;SDS011;26233;51.894;10.192;2022-12-07T03:08:30;7.03;;;6.23;;
40533;SDS011;26233;51.894;10.192;2022-12-07T03:11:08;7.17;;;6.53;;
40533;SDS011;26233;51.894;10.192;2022-12-07T03:13:39;7.40;;;6.70;;
40533;SDS011;26233;51.894;10.192;2022-12-07T03:16:15;6.77;;;6.17;;
40533;SDS011;26233;51.894;10.192;2022-12-07T03:18:46;6.90;;;6.30;;
40533;SDS011;26233;51.894;10.192;2022-12-07T03:21:18;7.03;;;6.40;;
40533;SDS011;26233;51.894;10.192;2022-12-07T03:23:50;7.27;;;6.57;;
40533;SDS011;26233;51.894;10.192;2022-12-07T03:26:21;7.07;;;6.37;;
40533;SDS011;26233;51.894;10.192;2022-12-07T03:28:55;7.33;;;6.63;;
40533;SDS011;26233;51.894;10.192;2022-12-07T03:31:28;6.83;;;6.23;;
40533;SDS011;26233;51.894;10.192;2022-12-07T03:34:09;7.80;;;7.07;;
40533;SDS011;26233;51.894;10.192;2022-12-07T03:36:39;7.00;;;6.30;;
40533;SDS011;26233;51.894;10.192;2022-12-07T03:39:14;6.83;;;6.23;;
40533;SDS011;26233;51.894;10.192;2022-12-07T03:41:48;7.47;;;6.77;;
40533;SDS011;26233;51.894;10.192;2022-12-07T03:44:16;7.30;;;6.60;;
40533;SDS011;26233;51.894;10.192;2022-12-07T03:46:46;8.20;;;7.17;;
40533;SDS011;26233;51.894;10.192;2022-12-07T03:49:23;7.50;;;6.80;;
40533;SDS011;26233;51.894;10.192;2022-12-07T03:51:57;7.17;;;6.43;;
40533;SDS011;26233;51.894;10.192;2022-12-07T03:54:34;7.17;;;6.57;;
40533;SDS011;26233;51.894;10.192;2022-12-07T03:57:05;7.90;;;7.10;;
40533;SDS011;26233;51.894;10.192;2022-12-07T03:59:35;7.30;;;6.60;;
40533;SDS011;26233;51.894;10.192;2022-12-07T04:02:05;7.57;;;6.83;;
40533;SDS011;26233;51.894;10.192;2022-12-07T04:04:34;7.47;;;6.73;;
40533;SDS011;26233;51.894;10.192;2022-12-07T04:07:01;7.90;;;7.00;;
40533;SDS011;26233;51.894;10.192;2022-12-07T04:09:28;7.60;;;6.80;;
40533;SDS011;26233;51.894;10.192;2022-12-07T04:11:56;7.80;;;7.10;;
40533;SDS011;26233;51.894;10.192;2022-12-07T04:14:23;7.70;;;7.00;;
40533;SDS011;26233;51.894;10.192;2022-12-07T04:16:54;7.97;;;7.20;;
40533;SDS011;26233;51.894;10.192;2022-12-07T04:19:25;8.53;;;7.70;;
40533;SDS011;26233;51.894;10.192;2022-12-07T04:21:54;8.53;;;7.67;;
40533;SDS011;26233;51.894;10.192;2022-12-07T04:24:21;8.20;;;7.40;;
40533;SDS011;26233;51.894;10.192;2022-12-07T04:26:49;8.73;;;7.83;;
40533;SDS011;26233;51.894;10.192;2022-12-07T04:29:19;8.57;;;7.77;;
40533;SDS011;26233;51.894;10.192;2022-12-07T04:31:46;8.47;;;7.67;;
40533;SDS011;26233;51.894;10.192;2022-12-07T04:34:14;8.90;;;8.00;;
40533;SDS011;26233;51.894;10.192;2022-12-07T04:36:46;8.20;;;7.40;;
40533;SDS011;26233;51.894;10.192;2022-12-07T04:39:17;8.07;;;7.27;;
40533;SDS011;26233;51.894;10.192;2022-12-07T04:41:47;8.33;;;7.53;;
40533;SDS011;26233;51.894;10.192;2022-12-07T04:44:15;9.23;;;7.70;;
40533;SDS011;26233;51.894;10.192;2022-12-07T04:46:42;7.90;;;7.20;;
40533;SDS011;26233;51.894;10.192;2022-12-07T04:49:11;8.43;;;7.63;;
40533;SDS011;26233;51.894;10.192;2022-12-07T04:51:39;8.53;;;7.73;;
40533;SDS011;26233;51.894;10.192;2022-12-07T04:54:08;8.67;;;7.83;;
40533;SDS011;26233;51.894;10.192;2022-12-07T04:56:35;8.73;;;7.93;;
40533;SDS011;26233;51.894;10.192;2022-12-07T04:59:03;8.27;;;7.43;;
40533;SDS011;26233;51.894;10.192;2022-12-07T05:01:31;8.57;;;7.73;;
40533;SDS011;26233;51.894;10.192;2022-12-07T05:04:00;8.30;;;7.50;;
40533;SDS011;26233;51.894;10.192;2022-12-07T05:06:27;8.53;;;7.73;;
40533;SDS011;26233;51.894;10.192;2022-12-07T05:08:54;8.83;;;8.03;;
40533;SDS011;26233;51.894;10.192;2022-12-07T05:11:22;8.93;;;8.03;;
40533;SDS011;26233;51.894;10.192;2022-12-07T05:14:06;8.27;;;7.47;;
40533;SDS011;26233;51.894;10.192;2022-12-07T05:16:36;8.63;;;7.67;;
40533;SDS011;26233;51.894;10.192;2022-12-07T05:19:04;8.43;;;7.63;;
40533;SDS011;26233;51.894;10.192;2022-12-07T05:21:32;8.63;;;7.73;;
40533;SDS011;26233;51.894;10.192;2022-12-07T05:24:00;9.33;;;8.43;;
40533;SDS011;26233;51.894;10.192;2022-12-07T05:26:29;8.73;;;7.73;;
40533;SDS011;26233;51.894;10.192;2022-12-07T05:28:56;9.03;;;8.13;;
40533;SDS011;26233;51.894;10.192;2022-12-07T05:31:26;8.00;;;7.27;;
40533;SDS011;26233;51.894;10.192;2022-12-07T05:33:54;8.70;;;7.80;;
40533;SDS011;26233;51.894;10.192;2022-12-07T05:36:21;8.40;;;7.50;;
40533;SDS011;26233;51.894;10.192;2022-12-07T05:38:49;8.30;;;7.50;;
40533;SDS011;26233;51.894;10.192;2022-12-07T05:41:17;8.30;;;7.50;;
40533;SDS011;26233;51.894;10.192;2022-12-07T05:44:04;7.57;;;6.80;;
40533;SDS011;26233;51.894;10.192;2022-12-07T05:46:31;8.00;;;7.20;;
40533;SDS011;26233;51.894;10.192;2022-12-07T05:48:59;7.57;;;6.87;;
40533;SDS011;26233;51.894;10.192;2022-12-07T05:51:26;7.63;;;6.93;;
40533;SDS011;26233;51.894;10.192;2022-12-07T05:53:56;8.43;;;7.30;;
40533;SDS011;26233;51.894;10.192;2022-12-07T05:56:23;8.27;;;6.77;;
40533;SDS011;26233;51.894;10.192;2022-12-07T05:58:51;7.80;;;7.00;;
40533;SDS011;26233;51.894;10.192;2022-12-07T06:01:37;6.87;;;6.27;;
40533;SDS011;26233;51.894;10.192;2022-12-07T06:04:05;7.67;;;6.77;;
40533;SDS011;26233;51.894;10.192;2022-12-07T06:06:32;7.93;;;7.03;;
40533;SDS011;26233;51.894;10.192;2022-12-07T06:08:59;7.83;;;6.67;;
40533;SDS011;26233;51.894;10.192;2022-12-07T06:11:26;7.87;;;7.07;;
40533;SDS011;26233;51.894;10.192;2022-12-07T06:14:11;7.63;;;6.80;;
40533;SDS011;26233;51.894;10.192;2022-12-07T06:16:39;6.83;;;6.23;;
40533;SDS011;26233;51.894;10.192;2022-12-07T06:19:07;7.07;;;6.37;;
40533;SDS011;26233;51.894;10.192;2022-12-07T06:21:39;7.20;;;6.13;;
40533;SDS011;26233;51.894;10.192;2022-12-07T06:24:06;7.00;;;6.30;;
40533;SDS011;26233;51.894;10.192;2022-12-07T06:26:36;6.63;;;5.93;;
40533;SDS011;26233;51.894;10.192;2022-12-07T06:29:03;5.90;;;5.17;;
40533;SDS011;26233;51.894;10.192;2022-12-07T06:31:30;7.00;;;6.30;;
40533;SDS011;26233;51.894;10.192;2022-12-07T06:34:00;6.27;;;5.60;;
40533;SDS011;26233;51.894;10.192;2022-12-07T06:36:29;6.90;;;5.90;;
40533;SDS011;26233;51.894;10.192;2022-12-07T06:38:57;7.03;;;5.73;;
40533;SDS011;26233;51.894;10.192;2022-12-07T06:41:24;9.13;;;5.73;;
40533;SDS011;26233;51.894;10.192;2022-12-07T06:43:54;5.53;;;5.03;;
40533;SDS011;26233;51.894;10.192;2022-12-07T06:46:30;6.83;;;5.70;;
40533;SDS011;26233;51.894;10.192;2022-12-07T06:48:57;6.10;;;5.60;;
40533;SDS011;26233;51.894;10.192;2022-12-07T06:51:25;6.57;;;5.27;;
40533;SDS011;26233;51.894;10.192;2022-12-07T06:53:53;5.77;;;5.17;;
40533;SDS011;26233;51.894;10.192;2022-12-07T06:56:20;5.93;;;4.80;;
40533;SDS011;26233;51.894;10.192;2022-12-07T06:58:48;5.67;;;4.93;;
40533;SDS011;26233;51.894;10.192;2022-12-07T07:01:17;5.63;;;4.47;;
40533;SDS011;26233;51.894;10.192;2022-12-07T07:03:45;5.60;;;5.10;;
40533;SDS011;26233;51.894;10.192;2022-12-07T07:06:14;4.93;;;4.43;;
40533;SDS011;26233;51.894;10.192;2022-12-07T07:08:41;5.73;;;5.13;;
40533;SDS011;26233;51.894;10.192;2022-12-07T07:11:09;4.97;;;4.47;;
40533;SDS011;26233;51.894;10.192;2022-12-07T07:13:38;5.73;;;4.63;;
40533;SDS011;26233;51.894;10.192;2022-12-07T07:16:05;5.07;;;4.57;;
40533;SDS011;26233;51.894;10.192;2022-12-07T07:18:33;5.37;;;4.70;;
40533;SDS011;26233;51.894;10.192;2022-12-07T07:21:01;5.53;;;4.90;;
40533;SDS011;26233;51.894;10.192;2022-12-07T07:23:29;5.40;;;4.90;;
40533;SDS011;26233;51.894;10.192;2022-12-07T07:25:56;6.20;;;4.60;;
40533;SDS011;26233;51.894;10.192;2022-12-07T07:28:23;6.07;;;4.67;;
40533;SDS011;26233;51.894;10.192;2022-12-07T07:30:51;5.17;;;4.53;;
40533;SDS011;26233;51.894;10.192;2022-12-07T07:33:18;5.13;;;4.33;;
40533;SDS011;26233;51.894;10.192;2022-12-07T07:35:45;4.53;;;3.93;;
40533;SDS011;26233;51.894;10.192;2022-12-07T07:38:12;6.33;;;4.60;;
40533;SDS011;26233;51.894;10.192;2022-12-07T07:40:40;5.77;;;4.67;;
40533;SDS011;26233;51.894;10.192;2022-12-07T07:43:09;4.97;;;4.33;;
40533;SDS011;26233;51.894;10.192;2022-12-07T07:45:36;6.70;;;4.93;;
40533;SDS011;26233;51.894;10.192;2022-12-07T07:48:04;5.20;;;4.70;;
40533;SDS011;26233;51.894;10.192;2022-12-07T07:50:34;5.67;;;4.43;;
40533;SDS011;26233;51.894;10.192;2022-12-07T07:53:01;5.03;;;4.53;;
40533;SDS011;26233;51.894;10.192;2022-12-07T07:55:28;4.47;;;4.00;;
40533;SDS011;26233;51.894;10.192;2022-12-07T07:57:57;4.23;;;3.83;;
40533;SDS011;26233;51.894;10.192;2022-12-07T08:00:24;4.37;;;3.97;;
40533;SDS011;26233;51.894;10.192;2022-12-07T08:02:51;4.13;;;3.63;;
40533;SDS011;26233;51.894;10.192;2022-12-07T08:05:18;5.47;;;4.03;;
40533;SDS011;26233;51.894;10.192;2022-12-07T08:07:45;4.63;;;4.17;;
40533;SDS011;26233;51.894;10.192;2022-12-07T08:10:12;4.00;;;3.70;;
40533;SDS011;26233;51.894;10.192;2022-12-07T08:12:41;4.97;;;4.43;;
40533;SDS011;26233;51.894;10.192;2022-12-07T08:15:24;4.20;;;3.90;;
40533;SDS011;26233;51.894;10.192;2022-12-07T08:17:52;4.30;;;3.90;;
40533;SDS011;26233;51.894;10.192;2022-12-07T08:20:19;3.77;;;3.43;;
40533;SDS011;26233;51.894;10.192;2022-12-07T08:22:46;4.27;;;3.87;;
40533;SDS011;26233;51.894;10.192;2022-12-07T08:25:13;3.80;;;3.50;;
40533;SDS011;26233;51.894;10.192;2022-12-07T08:27:41;4.30;;;3.73;;
40533;SDS011;26233;51.894;10.192;2022-12-07T08:30:08;4.20;;;3.80;;
40533;SDS011;26233;51.894;10.192;2022-12-07T08:32:37;4.17;;;3.40;;
40533;SDS011;26233;51.894;10.192;2022-12-07T08:35:05;4.00;;;3.57;;
40533;SDS011;26233;51.894;10.192;2022-12-07T08:37:32;3.80;;;3.20;;
40533;SDS011;26233;51.894;10.192;2022-12-07T08:40:02;3.10;;;2.83;;
40533;SDS011;26233;51.894;10.192;2022-12-07T08:42:30;3.27;;;2.97;;
40533;SDS011;26233;51.894;10.192;2022-12-07T08:45:03;3.40;;;3.13;;
40533;SDS011;26233;51.894;10.192;2022-12-07T08:47:32;3.47;;;3.17;;
40533;SDS011;26233;51.894;10.192;2022-12-07T08:50:02;4.33;;;3.87;;
40533;SDS011;26233;51.894;10.192;2022-12-07T08:52:30;5.37;;;4.70;;
40533;SDS011;26233;51.894;10.192;2022-12-07T08:54:58;4.40;;;4.00;;
40533;SDS011;26233;51.894;10.192;2022-12-07T08:57:26;3.83;;;3.53;;
40533;SDS011;26233;51.894;10.192;2022-12-07T08:59:55;3.33;;;3.03;;
40533;SDS011;26233;51.894;10.192;2022-12-07T09:02:22;3.47;;;3.17;;
40533;SDS011;26233;51.894;10.192;2022-12-07T09:04:50;3.37;;;3.07;;
40533;SDS011;26233;51.894;10.192;2022-12-07T09:07:18;3.33;;;2.80;;
40533;SDS011;26233;51.894;10.192;2022-12-07T09:09:46;3.20;;;2.90;;
40533;SDS011;26233;51.894;10.192;2022-12-07T09:12:13;2.50;;;2.30;;
40533;SDS011;26233;51.894;10.192;2022-12-07T09:14:40;3.33;;;2.77;;
40533;SDS011;26233;51.894;10.192;2022-12-07T09:17:07;3.37;;;2.50;;
40533;SDS011;26233;51.894;10.192;2022-12-07T09:19:36;2.50;;;2.30;;
40533;SDS011;26233;51.894;10.192;2022-12-07T09:22:03;2.50;;;2.30;;
40533;SDS011;26233;51.894;10.192;2022-12-07T09:24:32;3.07;;;2.77;;
40533;SDS011;26233;51.894;10.192;2022-12-07T09:27:00;3.80;;;3.50;;
40533;SDS011;26233;51.894;10.192;2022-12-07T09:29:27;4.43;;;3.60;;
40533;SDS011;26233;51.894;10.192;2022-12-07T09:31:54;3.47;;;3.10;;
40533;SDS011;26233;51.894;10.192;2022-12-07T09:34:21;2.53;;;2.33;;
40533;SDS011;26233;51.894;10.192;2022-12-07T09:36:48;2.60;;;2.40;;
40533;SDS011;26233;51.894;10.192;2022-12-07T09:39:15;2.70;;;2.43;;
40533;SDS011;26233;51.894;10.192;2022-12-07T09:41:44;2.93;;;2.47;;
40533;SDS011;26233;51.894;10.192;2022-12-07T09:44:12;3.70;;;3.20;;
40533;SDS011;26233;51.894;10.192;2022-12-07T09:46:44;2.23;;;2.13;;
40533;SDS011;26233;51.894;10.192;2022-12-07T09:49:12;4.13;;;2.27;;
40533;SDS011;26233;51.894;10.192;2022-12-07T09:51:45;2.63;;;2.40;;
40533;SDS011;26233;51.894;10.192;2022-12-07T09:54:13;2.50;;;2.30;;
40533;SDS011;26233;51.894;10.192;2022-12-07T09:56:43;2.53;;;2.33;;
40533;SDS011;26233;51.894;10.192;2022-12-07T09:59:12;4.30;;;3.00;;
40533;SDS011;26233;51.894;10.192;2022-12-07T10:01:44;2.60;;;2.40;;
40533;SDS011;26233;51.894;10.192;2022-12-07T10:04:14;3.33;;;2.63;;
40533;SDS011;26233;51.894;10.192;2022-12-07T10:06:44;2.60;;;2.40;;
40533;SDS011;26233;51.894;10.192;2022-12-07T10:09:13;4.00;;;3.00;;
40533;SDS011;26233;51.894;10.192;2022-12-07T10:11:59;3.10;;;2.43;;
40533;SDS011;26233;51.894;10.192;2022-12-07T10:14:30;3.60;;;2.60;;
40533;SDS011;26233;51.894;10.192;2022-12-07T10:17:00;3.17;;;2.60;;
40533;SDS011;26233;51.894;10.192;2022-12-07T10:19:28;2.50;;;2.30;;
40533;SDS011;26233;51.894;10.192;2022-12-07T10:22:02;2.73;;;2.53;;
40533;SDS011;26233;51.894;10.192;2022-12-07T10:24:35;2.73;;;2.37;;
40533;SDS011;26233;51.894;10.192;2022-12-07T10:27:09;2.77;;;2.53;;
40533;SDS011;26233;51.894;10.192;2022-12-07T10:29:49;2.73;;;2.50;;
40533;SDS011;26233;51.894;10.192;2022-12-07T10:32:28;3.40;;;2.73;;
40533;SDS011;26233;51.894;10.192;2022-12-07T10:35:18;3.17;;;2.87;;
40533;SDS011;26233;51.894;10.192;2022-12-07T10:37:54;2.97;;;2.60;;
40533;SDS011;26233;51.894;10.192;2022-12-07T10:40:24;3.47;;;3.17;;
40533;SDS011;26233;51.894;10.192;2022-12-07T10:43:04;2.57;;;2.37;;
40533;SDS011;26233;51.894;10.192;2022-12-07T10:45:54;2.60;;;2.40;;
40533;SDS011;26233;51.894;10.192;2022-12-07T10:48:50;5.03;;;2.67;;
40533;SDS011;26233;51.894;10.192;2022-12-07T10:51:32;2.27;;;2.07;;
40533;SDS011;26233;51.894;10.192;2022-12-07T10:54:09;2.50;;;2.10;;
40533;SDS011;26233;51.894;10.192;2022-12-07T10:56:51;2.57;;;2.37;;
40533;SDS011;26233;51.894;10.192;2022-12-07T10:59:35;3.80;;;2.60;;
40533;SDS011;26233;51.894;10.192;2022-12-07T11:02:31;2.33;;;2.13;;
40533;SDS011;26233;51.894;10.192;2022-12-07T11:05:23;2.53;;;1.97;;
40533;SDS011;26233;51.894;10.192;2022-12-07T11:08:01;2.13;;;2.03;;
40533;SDS011;26233;51.894;10.192;2022-12-07T11:10:41;2.37;;;2.17;;
40533;SDS011;26233;51.894;10.192;2022-12-07T11:13:25;2.70;;;2.00;;
40533;SDS011;26233;51.894;10.192;2022-12-07T11:16:01;2.07;;;1.87;;
40533;SDS011;26233;51.894;10.192;2022-12-07T11:19:11;1.97;;;1.80;;
40533;SDS011;26233;51.894;10.192;2022-12-07T11:21:52;2.30;;;2.10;;
40533;SDS011;26233;51.894;10.192;2022-12-07T11:24:25;1.70;;;1.60;;
40533;SDS011;26233;51.894;10.192;2022-12-07T11:27:05;2.17;;;1.50;;
40533;SDS011;26233;51.894;10.192;2022-12-07T11:29:56;2.63;;;1.93;;
40533;SDS011;26233;51.894;10.192;2022-12-07T11:32:44;2.30;;;2.10;;
40533;SDS011;26233;51.894;10.192;2022-12-07T11:35:22;2.10;;;1.77;;
40533;SDS011;26233;51.894;10.192;2022-12-07T11:38:06;1.87;;;1.70;;
40533;SDS011;26233;51.894;10.192;2022-12-07T11:40:38;2.77;;;1.80;;
40533;SDS011;26233;51.894;10.192;2022-12-07T11:43:13;1.83;;;1.60;;
40533;SDS011;26233;51.894;10.192;2022-12-07T11:45:50;2.30;;;2.00;;
40533;SDS011;26233;51.894;10.192;2022-12-07T11:48:30;2.00;;;1.90;;
40533;SDS011;26233;51.894;10.192;2022-12-07T11:51:02;2.97;;;2.10;;
40533;SDS011;26233;51.894;10.192;2022-12-07T11:53:31;2.27;;;2.07;;
40533;SDS011;26233;51.894;10.192;2022-12-07T11:56:06;2.03;;;1.90;;
40533;SDS011;26233;51.894;10.192;2022-12-07T11:58:44;1.90;;;1.80;;
40533;SDS011;26233;51.894;10.192;2022-12-07T12:01:22;2.20;;;1.97;;
40533;SDS011;26233;51.894;10.192;2022-12-07T12:04:02;2.23;;;2.07;;
40533;SDS011;26233;51.894;10.192;2022-12-07T12:06:48;2.17;;;1.90;;
40533;SDS011;26233;51.894;10.192;2022-12-07T12:09:16;2.33;;;2.13;;
40533;SDS011;26233;51.894;10.192;2022-12-07T12:11:54;2.40;;;2.20;;
40533;SDS011;26233;51.894;10.192;2022-12-07T12:14:45;2.53;;;2.17;;
40533;SDS011;26233;51.894;10.192;2022-12-07T12:17:33;2.30;;;2.10;;
40533;SDS011;26233;51.894;10.192;2022-12-07T12:20:17;2.80;;;2.27;;
40533;SDS011;26233;51.894;10.192;2022-12-07T12:22:51;2.47;;;2.00;;
40533;SDS011;26233;51.894;10.192;2022-12-07T12:25:23;2.17;;;1.97;;
40533;SDS011;26233;51.894;10.192;2022-12-07T12:27:54;3.13;;;2.13;;
40533;SDS011;26233;51.894;10.192;2022-12-07T12:30:26;2.47;;;2.00;;
40533;SDS011;26233;51.894;10.192;2022-12-07T12:33:03;2.83;;;2.00;;
40533;SDS011;26233;51.894;10.192;2022-12-07T12:35:41;2.63;;;1.97;;
40533;SDS011;26233;51.894;10.192;2022-12-07T12:38:28;2.07;;;1.83;;
40533;SDS011;26233;51.894;10.192;2022-12-07T12:40:59;3.17;;;2.00;;
40533;SDS011;26233;51.894;10.192;2022-12-07T12:43:44;2.17;;;1.97;;
40533;SDS011;26233;51.894;10.192;2022-12-07T12:55:30;2.03;;;1.70;;
40533;SDS011;26233;51.894;10.192;2022-12-07T12:58:44;3.93;;;2.10;;
40533;SDS011;26233;51.894;10.192;2022-12-07T13:04:24;2.73;;;1.97;;
40533;SDS011;26233;51.894;10.192;2022-12-07T13:10:37;3.40;;;2.07;;
40533;SDS011;26233;51.894;10.192;2022-12-07T13:13:31;2.63;;;2.30;;
40533;SDS011;26233;51.894;10.192;2022-12-07T13:22:35;3.90;;;2.03;;
40533;SDS011;26233;51.894;10.192;2022-12-07T13:25:11;2.50;;;1.90;;
40533;SDS011;26233;51.894;10.192;2022-12-07T13:27:47;2.80;;;2.20;;
40533;SDS011;26233;51.894;10.192;2022-12-07T13:30:22;2.30;;;1.90;;
40533;SDS011;26233;51.894;10.192;2022-12-07T13:32:51;2.07;;;1.87;;
40533;SDS011;26233;51.894;10.192;2022-12-07T13:35:26;2.73;;;2.13;;
40533;SDS011;26233;51.894;10.192;2022-12-07T13:37:56;2.87;;;2.33;;
40533;SDS011;26233;51.894;10.192;2022-12-07T13:40:23;2.60;;;2.23;;
40533;SDS011;26233;51.894;10.192;2022-12-07T13:43:00;3.60;;;2.30;;
40533;SDS011;26233;51.894;10.192;2022-12-07T13:45:30;2.37;;;2.00;;
40533;SDS011;26233;51.894;10.192;2022-12-07T13:48:15;3.27;;;2.10;;
40533;SDS011;26233;51.894;10.192;2022-12-07T13:50:52;3.40;;;2.03;;
40533;SDS011;26233;51.894;10.192;2022-12-07T13:53:20;3.73;;;2.37;;
40533;SDS011;26233;51.894;10.192;2022-12-07T13:55:48;3.37;;;2.47;;
40533;SDS011;26233;51.894;10.192;2022-12-07T13:58:17;4.87;;;2.70;;
40533;SDS011;26233;51.894;10.192;2022-12-07T14:00:44;2.53;;;2.17;;
40533;SDS011;26233;51.894;10.192;2022-12-07T14:06:03;3.73;;;1.97;;
40533;SDS011;26233;51.894;10.192;2022-12-07T14:08:44;2.43;;;1.80;;
40533;SDS011;26233;51.894;10.192;2022-12-07T14:11:16;2.60;;;1.80;;
40533;SDS011;26233;51.894;10.192;2022-12-07T14:13:56;2.43;;;2.00;;
40533;SDS011;26233;51.894;10.192;2022-12-07T14:16:26;3.07;;;2.23;;
40533;SDS011;26233;51.894;10.192;2022-12-07T14:18:55;2.20;;;1.80;;
40533;SDS011;26233;51.894;10.192;2022-12-07T14:21:24;1.93;;;1.80;;
40533;SDS011;26233;51.894;10.192;2022-12-07T14:26:45;3.17;;;1.70;;
40533;SDS011;26233;51.894;10.192;2022-12-07T14:32:20;3.73;;;2.80;;
40533;SDS011;26233;51.894;10.192;2022-12-07T14:35:03;5.77;;;2.60;;
40533;SDS011;26233;51.894;10.192;2022-12-07T14:37:36;2.57;;;2.37;;
40533;SDS011;26233;51.894;10.192;2022-12-07T14:40:05;2.57;;;2.10;;
40533;SDS011;26233;51.894;10.192;2022-12-07T14:42:36;2.50;;;2.30;;
40533;SDS011;26233;51.894;10.192;2022-12-07T14:45:05;4.80;;;2.73;;
40533;SDS011;26233;51.894;10.192;2022-12-07T14:47:39;3.40;;;2.70;;
40533;SDS011;26233;51.894;10.192;2022-12-07T14:50:07;3.37;;;2.70;;
40533;SDS011;26233;51.894;10.192;2022-12-07T14:52:38;4.23;;;2.37;;
40533;SDS011;26233;51.894;10.192;2022-12-07T14:55:11;5.17;;;2.30;;
40533;SDS011;26233;51.894;10.192;2022-12-07T14:57:49;3.50;;;2.80;;
40533;SDS011;26233;51.894;10.192;2022-12-07T15:00:18;5.13;;;3.30;;
40533;SDS011;26233;51.894;10.192;2022-12-07T15:02:48;3.47;;;2.53;;
40533;SDS011;26233;51.894;10.192;2022-12-07T15:05:15;3.27;;;2.67;;
40533;SDS011;26233;51.894;10.192;2022-12-07T15:07:43;3.17;;;2.63;;
40533;SDS011;26233;51.894;10.192;2022-12-07T15:10:13;2.83;;;2.53;;
40533;SDS011;26233;51.894;10.192;2022-12-07T15:12:44;3.23;;;2.43;;
40533;SDS011;26233;51.894;10.192;2022-12-07T15:15:12;2.50;;;2.27;;
40533;SDS011;26233;51.894;10.192;2022-12-07T15:17:40;3.17;;;2.47;;
40533;SDS011;26233;51.894;10.192;2022-12-07T15:20:09;2.60;;;2.20;;
40533;SDS011;26233;51.894;10.192;2022-12-07T15:22:39;3.37;;;2.10;;
40533;SDS011;26233;51.894;10.192;2022-12-07T15:25:08;4.60;;;2.27;;
40533;SDS011;26233;51.894;10.192;2022-12-07T15:27:38;3.60;;;2.90;;
40533;SDS011;26233;51.894;10.192;2022-12-07T15:30:06;3.17;;;2.73;;
40533;SDS011;26233;51.894;10.192;2022-12-07T15:32:34;3.73;;;2.73;;
40533;SDS011;26233;51.894;10.192;2022-12-07T15:35:02;4.20;;;3.80;;
40533;SDS011;26233;51.894;10.192;2022-12-07T15:37:30;3.43;;;3.13;;